Time;durP1;ratioP1;P1;durP2;ratioP2;P2;SDS_P1;SDS_P2;PMS_P1;PMS_P2;Temp;Humidity;BMP_temperature;BMP_pressure;BME280_temperature;BME280_humidity;BME280_pressure;Samples;Min_cycle;Max_cycle;Signal;HPM_P1;HPM_P2
2022/11/28 00:00:25;;;;;;;35.67;13.48;;;;;;;8.34;59.64;100653.84;4476861;31;22297;-96
2022/11/28 00:02:51;;;;;;;32.78;13.82;;;;;;;8.17;59.63;100656.53;4476634;32;20170;-96
2022/11/28 00:05:17;;;;;;;41.50;14.82;;;;;;;8.20;59.63;100658.22;4480725;31;20121;-96
2022/11/28 00:07:43;;;;;;;36.08;13.52;;;;;;;8.26;59.64;100659.03;4479966;31;20452;-96
2022/11/28 00:10:25;;;;;;;36.97;13.73;;;;;;;8.24;59.63;100654.72;4491154;26;20107;-96
2022/11/28 00:13:53;;;;;;;37.90;15.20;;;;;;;8.35;59.63;100657.28;4490098;32;20125;-96
2022/11/28 00:21:55;;;;;;;37.28;13.00;;;;;;;8.34;59.64;100658.16;4434892;32;20109;-94
2022/11/28 00:24:25;;;;;;;39.20;15.02;;;;;;;8.45;59.65;100651.13;4437267;32;20091;-96
2022/11/28 00:27:06;;;;;;;37.90;14.57;;;;;;;8.45;59.65;100658.91;4455641;32;20106;-96
2022/11/28 00:30:12;;;;;;;41.22;15.05;;;;;;;8.37;59.65;100651.22;4456688;32;20065;-96
2022/11/28 00:33:26;;;;;;;38.40;14.10;;;;;;;8.43;59.64;100648.56;4423035;32;20134;-96
2022/11/28 00:38:56;;;;;;;42.08;15.18;;;;;;;8.41;59.65;100649.44;4563102;27;20078;-96
2022/11/28 00:41:59;;;;;;;47.08;16.92;;;;;;;8.27;59.63;100657.28;4409426;32;20101;-92
2022/11/28 00:44:46;;;;;;;46.00;14.95;;;;;;;8.37;59.65;100648.62;4421214;32;20110;-96
2022/11/28 00:47:17;;;;;;;41.60;14.35;;;;;;;8.60;59.66;100649.28;4422075;32;20774;-96
2022/11/28 00:50:00;;;;;;;46.10;15.50;;;;;;;8.68;59.66;100653.50;4405582;32;20085;-96
2022/11/28 00:52:34;;;;;;;35.63;13.40;;;;;;;8.59;59.66;100649.28;4409445;32;20088;-96
2022/11/28 00:55:11;;;;;;;40.33;14.48;;;;;;;8.71;59.66;100656.06;4409578;32;20074;-96
2022/11/28 00:57:50;;;;;;;36.83;13.23;;;;;;;8.54;59.65;100656.25;4411255;32;20066;-96
2022/11/28 01:00:41;;;;;;;38.78;15.25;;;;;;;8.45;59.65;100652.00;4420993;32;20054;-96
2022/11/28 01:03:11;;;;;;;42.65;14.55;;;;;;;8.25;59.64;100657.31;4657222;27;20089;-96
2022/11/28 01:08:40;;;;;;;43.20;14.32;;;;;;;8.24;59.64;100653.00;4483950;27;20079;-96
2022/11/28 01:11:11;;;;;;;48.72;14.10;;;;;;;8.36;59.63;100654.69;4391566;32;20102;-96
2022/11/28 01:13:39;;;;;;;45.80;14.87;;;;;;;8.15;59.64;100649.63;4363949;32;20119;-96
2022/11/28 01:16:06;;;;;;;39.10;12.95;;;;;;;8.15;59.63;100653.09;4363699;32;20094;-96
2022/11/28 01:18:52;;;;;;;45.30;15.07;;;;;;;8.27;59.64;100642.59;4365472;32;20093;-96
2022/11/28 01:21:22;;;;;;;41.30;12.70;;;;;;;8.10;59.63;100641.03;4392940;32;20086;-96
2022/11/28 01:24:04;;;;;;;39.63;12.57;;;;;;;8.25;59.63;100635.72;4389914;32;20081;-96
2022/11/28 01:27:25;;;;;;;38.22;12.85;;;;;;;8.58;59.65;100639.78;4406365;32;20071;-96
2022/11/28 01:30:01;;;;;;;33.88;12.40;;;;;;;8.56;59.65;100639.81;4559175;27;20194;-96
2022/11/28 01:32:42;;;;;;;35.95;11.48;;;;;;;8.43;59.64;100643.38;4404411;32;20199;-96
2022/11/28 01:35:13;;;;;;;36.85;13.05;;;;;;;8.45;59.65;100640.75;4422467;32;20080;-96
2022/11/28 01:37:41;;;;;;;35.30;11.18;;;;;;;8.57;59.65;100638.06;4407900;32;20065;-96
2022/11/28 01:40:07;;;;;;;37.35;11.85;;;;;;;8.50;59.64;100639.84;4409682;32;20061;-96
2022/11/28 01:42:33;;;;;;;32.15;11.45;;;;;;;8.46;59.65;100635.56;4421951;32;20115;-96
2022/11/28 01:45:04;;;;;;;36.35;13.20;;;;;;;8.57;59.65;100631.13;4429099;32;20089;-96
2022/11/28 01:47:32;;;;;;;38.67;11.80;;;;;;;8.45;59.65;100623.47;4421140;32;20106;-96
2022/11/28 01:50:07;;;;;;;28.80;10.95;;;;;;;8.48;59.65;100618.22;4435206;32;20185;-96
2022/11/28 01:52:57;;;;;;;29.42;10.70;;;;;;;8.47;59.64;100611.31;4449007;32;20108;-96
2022/11/28 01:55:32;;;;;;;33.42;11.68;;;;;;;8.43;59.64;100608.78;4450733;32;20061;-96
2022/11/28 01:57:58;;;;;;;33.42;12.23;;;;;;;8.39;59.64;100607.09;4425046;32;20082;-95
2022/11/28 02:00:27;;;;;;;34.58;10.98;;;;;;;8.54;59.65;100607.81;4425522;32;20119;-95
2022/11/28 02:03:21;;;;;;;27.08;10.70;;;;;;;8.57;59.65;100605.19;4411460;32;20057;-96
2022/11/28 02:05:47;;;;;;;31.37;12.02;;;;;;;8.45;59.65;100597.50;4421869;32;20061;-96
2022/11/28 02:08:46;;;;;;;33.22;11.27;;;;;;;8.37;59.64;100598.47;4422791;32;20073;-96
2022/11/28 02:12:12;;;;;;;30.35;11.75;;;;;;;8.49;59.65;100591.41;4435964;32;20105;-96
2022/11/28 02:15:24;;;;;;;33.40;11.48;;;;;;;8.55;59.65;100587.91;4363486;32;20081;-96
2022/11/28 02:21:27;;;;;;;32.65;10.85;;;;;;;8.65;59.65;100584.34;4374965;32;20227;-96
2022/11/28 02:24:20;;;;;;;32.17;11.35;;;;;;;8.46;59.65;100583.66;4374655;32;20063;-96
2022/11/28 02:27:44;;;;;;;30.42;10.85;;;;;;;8.41;59.64;100590.63;4373848;32;20055;-96
2022/11/28 02:30:37;;;;;;;26.83;9.90;;;;;;;8.34;59.64;100585.53;4360514;33;20082;-96
2022/11/28 02:36:41;;;;;;;31.17;10.68;;;;;;;8.25;59.64;100587.28;4340436;33;20102;-96
2022/11/28 02:39:36;;;;;;;27.50;9.95;;;;;;;8.24;59.64;100585.56;4344211;33;20115;-96
2022/11/28 02:42:16;;;;;;;26.15;10.40;;;;;;;8.19;59.63;100578.72;4375256;32;20082;-96
2022/11/28 02:45:31;;;;;;;27.70;10.45;;;;;;;8.04;59.62;100581.44;4404789;32;20083;-96
2022/11/28 02:48:40;;;;;;;31.42;10.55;;;;;;;7.99;59.63;100577.16;4422420;32;20085;-96
2022/11/28 02:51:32;;;;;;;24.35;10.30;;;;;;;7.77;59.61;100578.19;4446161;32;20082;-96
2022/11/28 02:53:59;;;;;;;25.05;9.63;;;;;;;7.77;59.62;100577.31;4416238;32;20106;-96
2022/11/28 02:56:25;;;;;;;29.55;11.43;;;;;;;7.64;59.60;100574.84;4392912;32;20109;-96
2022/11/28 02:58:50;;;;;;;35.25;12.37;;;;;;;7.65;59.60;100567.91;4383029;32;20179;-96
2022/11/28 03:01:26;;;;;;;28.50;10.80;;;;;;;7.66;59.60;100569.63;4383198;32;20108;-96
2022/11/28 03:04:12;;;;;;;33.65;11.02;;;;;;;7.62;59.61;100571.41;4383155;32;20149;-96
2022/11/28 03:06:40;;;;;;;23.30;10.18;;;;;;;7.44;59.59;100571.50;4409714;32;20081;-96
2022/11/28 03:09:20;;;;;;;32.45;11.10;;;;;;;7.55;59.60;100569.69;4388983;32;20106;-96
2022/11/28 03:11:47;;;;;;;;;;;;;;;7.61;59.60;100561.03;4409960;32;20109;-94
2022/11/28 03:14:15;;;;;;;31.27;10.27;;;;;;;7.52;59.59;100561.94;4414028;32;20585;-95
2022/11/28 03:16:47;;;;;;;29.50;11.55;;;;;;;7.39;59.58;100565.50;4407881;32;20182;-96
2022/11/28 03:19:38;;;;;;;28.67;10.95;;;;;;;7.35;59.59;100554.31;4385593;32;20756;-96
2022/11/28 03:22:18;;;;;;;28.52;11.12;;;;;;;7.32;59.58;100556.03;4398524;32;20106;-96
2022/11/28 03:24:46;;;;;;;35.00;11.12;;;;;;;7.16;59.57;100546.66;4398395;32;20114;-96
2022/11/28 03:27:22;;;;;;;29.15;11.27;;;;;;;7.29;59.58;100545.69;4397962;32;20228;-95
2022/11/28 03:29:50;;;;;;;33.15;11.07;;;;;;;7.29;59.58;100543.97;4385585;32;20101;-96
2022/11/28 03:32:29;;;;;;;28.23;10.10;;;;;;;7.47;59.59;100547.31;4385659;32;20122;-96
2022/11/28 03:35:07;;;;;;;29.17;12.20;;;;;;;7.47;59.59;100529.19;4372908;32;20667;-96
2022/11/28 03:37:34;;;;;;;29.10;10.57;;;;;;;7.39;59.58;100529.25;4381329;32;20764;-96
2022/11/28 03:40:03;;;;;;;27.90;11.05;;;;;;;7.38;59.58;100528.37;4384828;32;20118;-96
2022/11/28 03:42:30;;;;;;;29.50;10.98;;;;;;;7.24;59.58;100527.59;4385421;32;20057;-96
2022/11/28 03:44:57;;;;;;;28.12;9.70;;;;;;;7.26;59.58;100515.50;4374414;32;20109;-95
2022/11/28 03:47:24;;;;;;;31.02;11.32;;;;;;;7.48;59.60;100513.62;4385196;32;20124;-95
2022/11/28 03:49:51;;;;;;;29.55;10.32;;;;;;;7.51;59.60;100508.41;4385019;32;20132;-96
2022/11/28 03:52:58;;;;;;;31.95;10.77;;;;;;;7.49;59.60;100504.97;4386340;32;20148;-96
2022/11/28 03:56:01;;;;;;;31.25;11.18;;;;;;;7.52;59.59;100506.69;4423187;32;20105;-96
2022/11/28 03:58:36;;;;;;;34.63;13.20;;;;;;;7.55;59.60;100504.94;4407056;32;20168;-96
2022/11/28 04:01:10;;;;;;;33.20;10.45;;;;;;;7.35;59.59;100505.09;4371252;32;20106;-96
2022/11/28 04:03:45;;;;;;;34.88;12.90;;;;;;;7.51;59.60;100492.00;4391262;32;20153;-96
2022/11/28 04:06:45;;;;;;;31.08;12.32;;;;;;;7.55;59.60;100494.56;4403226;32;20062;-96
2022/11/28 04:09:28;;;;;;;33.22;11.93;;;;;;;7.59;59.60;100491.09;4398576;32;20106;-96
2022/11/28 04:11:58;;;;;;;34.13;11.85;;;;;;;7.81;59.61;100481.41;4394410;32;20205;-96
2022/11/28 04:14:30;;;;;;;;;;;;;;;7.64;59.61;100488.47;4381492;32;20185;-96
2022/11/28 04:17:00;;;;;;;31.52;11.43;;;;;;;7.82;59.61;100490.06;4398181;32;20136;-95
2022/11/28 04:19:31;;;;;;;32.15;11.73;;;;;;;7.78;59.61;100484.00;4384452;32;20831;-96
2022/11/28 04:22:28;;;;;;;27.25;11.85;;;;;;;7.66;59.60;100485.00;4389688;32;20066;-96
2022/11/28 04:25:18;;;;;;;30.58;10.98;;;;;;;7.76;59.60;100482.31;4405285;32;20124;-96
2022/11/28 04:27:46;;;;;;;30.37;11.43;;;;;;;7.73;59.61;100485.78;4409611;32;20090;-95
2022/11/28 04:30:12;;;;;;;31.62;11.98;;;;;;;7.82;59.61;100490.06;4405257;32;20477;-95
2022/11/28 04:32:43;;;;;;;28.85;11.70;;;;;;;7.77;59.61;100484.87;4408532;32;20102;-96
2022/11/28 04:38:06;;;;;;;28.45;10.48;;;;;;;7.79;59.61;100485.72;4471732;26;20101;-96
2022/11/28 04:40:33;;;;;;;26.73;11.20;;;;;;;7.77;59.62;100484.03;4424609;32;20069;-96
2022/11/28 04:43:10;;;;;;;29.23;11.77;;;;;;;7.89;59.62;100481.34;4395428;32;20100;-96
2022/11/28 04:45:48;;;;;;;26.08;12.00;;;;;;;7.79;59.61;100483.12;4423423;32;20157;-96
2022/11/28 04:51:21;;;;;;;26.85;10.80;;;;;;;7.80;59.61;100484.00;4573781;26;20126;-95
2022/11/28 04:54:14;;;;;;;25.55;10.85;;;;;;;7.84;59.62;100475.34;4400334;32;20124;-95
2022/11/28 04:56:45;;;;;;;28.02;11.52;;;;;;;7.82;59.61;100477.09;4412309;32;20067;-96
2022/11/28 04:59:11;;;;;;;24.27;10.25;;;;;;;7.89;59.62;100473.56;4406820;26;20077;-96
2022/11/28 05:01:45;;;;;;;26.30;11.35;;;;;;;7.79;59.61;100474.50;4407795;32;20115;-96
2022/11/28 05:04:12;;;;;;;28.85;10.68;;;;;;;7.90;59.61;100470.09;4421541;32;20118;-96
2022/11/28 05:06:38;;;;;;;31.00;12.85;;;;;;;7.74;59.60;100476.28;4405332;32;20094;-96
2022/11/28 05:09:07;;;;;;;25.17;10.25;;;;;;;7.68;59.60;100475.47;4409837;32;20093;-96
2022/11/28 05:11:33;;;;;;;31.58;11.52;;;;;;;7.79;59.61;100475.34;4428708;32;20105;-96
2022/11/28 05:13:59;;;;;;;30.40;12.45;;;;;;;7.76;59.62;100477.97;4407656;32;20082;-96
2022/11/28 05:16:26;;;;;;;30.42;11.75;;;;;;;7.76;59.61;100482.31;4417726;32;20062;-96
2022/11/28 05:18:53;;;;;;;32.00;11.50;;;;;;;7.69;59.61;100482.38;4405465;32;20728;-96
2022/11/28 05:21:19;;;;;;;25.42;12.00;;;;;;;7.78;59.61;100477.97;4390448;32;20109;-95
2022/11/28 05:23:47;;;;;;;33.05;12.45;;;;;;;7.69;59.61;100479.78;4401159;32;20121;-95
2022/11/28 05:26:19;;;;;;;29.15;11.63;;;;;;;7.75;59.61;100486.62;4419505;32;20069;-96
2022/11/28 05:28:59;;;;;;;34.83;11.07;;;;;;;7.82;59.61;100490.06;4432665;32;20129;-96
2022/11/28 05:36:35;;;;;;;32.50;12.60;;;;;;;7.55;59.60;100494.56;4784419;27;20820;-95
2022/11/28 05:39:01;;;;;;;29.52;11.30;;;;;;;7.55;59.60;100497.16;4397879;32;20081;-96
2022/11/28 05:41:30;;;;;;;29.55;11.05;;;;;;;7.57;59.60;100502.31;4388957;32;20482;-96
2022/11/28 05:43:56;;;;;;;35.88;13.25;;;;;;;7.54;59.59;100504.94;4404043;32;20093;-96
2022/11/28 05:46:22;;;;;;;30.98;12.10;;;;;;;7.60;59.59;100508.37;4401498;32;20139;-96
2022/11/28 05:48:47;;;;;;;35.83;13.73;;;;;;;7.74;59.61;100512.56;4391445;32;20182;-96
2022/11/28 05:51:13;;;;;;;35.53;13.50;;;;;;;7.83;59.61;100507.31;4403297;32;20136;-95
2022/11/28 05:53:38;;;;;;;31.83;12.23;;;;;;;7.98;59.61;100504.56;4400475;32;20094;-95
2022/11/28 05:56:08;;;;;;;28.83;12.75;;;;;;;7.91;59.61;100506.38;4400155;32;20134;-95
2022/11/28 05:58:38;;;;;;;36.75;12.80;;;;;;;7.97;59.62;100502.84;4413864;32;20093;-96
2022/11/28 06:01:17;;;;;;;33.80;13.32;;;;;;;7.98;59.62;100505.44;4400949;32;20113;-96
2022/11/28 06:03:59;;;;;;;36.25;13.18;;;;;;;8.06;59.62;100505.37;4401129;32;20102;-94
2022/11/28 06:06:30;;;;;;;36.40;13.07;;;;;;;8.07;59.62;100503.62;4400760;32;20077;-94
2022/11/28 06:08:58;;;;;;;33.17;12.68;;;;;;;7.89;59.62;100504.66;4412743;32;20454;-95
2022/11/28 06:11:30;;;;;;;37.58;12.30;;;;;;;8.00;59.62;100510.59;4386428;32;20106;-95
2022/11/28 06:14:08;;;;;;;;;;;;;;;;;;;;;
2022/11/28 06:16:36;;;;;;;38.53;12.32;;;;;;;8.05;59.62;100508.84;4400596;32;38024;-95
2022/11/28 06:19:03;;;;;;;33.22;12.55;;;;;;;8.05;59.62;100507.97;4399814;32;20149;-95
2022/11/28 06:21:29;;;;;;;29.30;11.70;;;;;;;7.87;59.62;100516.78;4398860;32;20128;-96
2022/11/28 06:23:55;;;;;;;34.63;13.15;;;;;;;7.84;59.62;100514.22;4385647;32;20113;-93
2022/11/28 06:26:21;;;;;;;35.72;13.75;;;;;;;7.83;59.61;100508.19;4385548;32;20101;-93
2022/11/28 06:28:47;;;;;;;38.78;12.43;;;;;;;7.92;59.62;100518.44;4401714;32;20085;-93
2022/11/28 06:31:17;;;;;;;30.98;12.20;;;;;;;7.93;59.62;100501.16;4388587;32;20175;-94
2022/11/28 06:33:42;;;;;;;33.17;11.77;;;;;;;7.86;59.62;100508.16;4387630;32;20066;-94
2022/11/28 06:36:08;;;;;;;31.25;12.05;;;;;;;7.80;59.61;100515.94;4389985;32;20336;-94
2022/11/28 06:38:34;;;;;;;34.30;11.32;;;;;;;7.73;59.61;100510.84;4383821;32;20697;-94
2022/11/28 06:41:10;;;;;;;32.50;11.20;;;;;;;7.79;59.61;100518.56;4386411;32;20232;-95
2022/11/28 06:43:36;;;;;;;29.90;11.98;;;;;;;7.79;59.61;100511.66;4386652;32;20163;-94
2022/11/28 06:46:04;;;;;;;31.08;11.88;;;;;;;7.75;59.61;100506.50;4400612;32;20097;-95
2022/11/28 06:48:31;;;;;;;29.65;12.10;;;;;;;7.78;59.61;100506.47;4398743;32;20081;-94
2022/11/28 06:51:04;;;;;;;31.25;13.18;;;;;;;7.79;59.61;100518.56;4408328;32;20121;-94
2022/11/28 06:53:29;;;;;;;38.53;13.68;;;;;;;7.76;59.61;100513.41;4385654;32;20119;-95
2022/11/28 06:55:55;;;;;;;35.17;14.48;;;;;;;7.88;59.62;100514.19;4394426;32;20093;-95
2022/11/28 06:58:20;;;;;;;34.70;13.85;;;;;;;7.83;59.61;100517.69;4384795;32;20094;-94
2022/11/28 07:00:46;;;;;;;31.50;13.35;;;;;;;7.94;59.62;100516.69;4418234;32;20135;-95
2022/11/28 07:03:12;;;;;;;35.28;13.50;;;;;;;8.04;59.62;100512.28;4398984;32;20105;-94
2022/11/28 07:05:37;;;;;;;34.60;13.30;;;;;;;8.16;59.63;100513.91;4387331;32;20096;-94
2022/11/28 07:08:03;;;;;;;31.98;11.43;;;;;;;8.14;59.64;100508.75;4396581;32;20102;-95
2022/11/28 07:10:28;;;;;;;32.53;12.95;;;;;;;8.11;59.63;100508.78;4384114;32;20402;-95
2022/11/28 07:12:55;;;;;;;35.45;14.27;;;;;;;8.06;59.62;100514.87;4384450;32;20161;-94
2022/11/28 07:15:20;;;;;;;32.15;12.40;;;;;;;8.01;59.62;100515.75;4384059;32;20063;-94
2022/11/28 07:17:46;;;;;;;29.85;11.50;;;;;;;8.06;59.62;100509.69;4385167;32;20131;-94
2022/11/28 07:20:11;;;;;;;31.25;12.13;;;;;;;8.11;59.63;100513.97;4384971;32;20398;-94
2022/11/28 07:22:37;;;;;;;30.83;12.27;;;;;;;8.02;59.62;100516.62;4399757;32;20153;-95
2022/11/28 07:25:02;;;;;;;34.53;14.13;;;;;;;8.13;59.63;100514.81;4397124;32;20110;-94
2022/11/28 07:27:28;;;;;;;37.40;13.07;;;;;;;8.26;59.63;100518.97;4385760;32;20145;-94
2022/11/28 07:29:54;;;;;;;31.15;11.02;;;;;;;8.31;59.64;100522.41;4383888;32;20141;-93
2022/11/28 07:32:19;;;;;;;31.62;12.77;;;;;;;8.15;59.64;100519.97;4384164;32;20184;-94
2022/11/28 07:34:45;;;;;;;31.52;12.65;;;;;;;8.24;59.64;100522.47;4396364;32;20158;-95
2022/11/28 07:37:10;;;;;;;35.63;13.48;;;;;;;8.24;59.64;100518.13;4398884;32;20117;-93
2022/11/28 07:39:35;;;;;;;33.97;12.93;;;;;;;8.34;59.64;100505.97;4399045;32;20109;-95
2022/11/28 07:42:01;;;;;;;33.75;14.20;;;;;;;8.44;59.64;100504.13;4399390;32;20144;-94
2022/11/28 07:44:26;;;;;;;29.05;11.60;;;;;;;8.44;59.65;100510.19;4385855;32;25471;-94
2022/11/28 07:46:52;;;;;;;32.00;12.18;;;;;;;8.46;59.65;100503.22;4386860;32;20112;-94
2022/11/28 07:49:17;;;;;;;30.48;12.00;;;;;;;8.52;59.66;100499.72;4386338;32;20190;-96
2022/11/28 07:51:43;;;;;;;33.13;12.70;;;;;;;8.49;59.64;100494.56;4408624;32;20186;-94
2022/11/28 07:54:08;;;;;;;35.72;13.15;;;;;;;8.51;59.66;100490.19;4386439;32;20417;-94
2022/11/28 07:56:35;;;;;;;28.42;11.85;;;;;;;8.43;59.64;100495.50;4400847;32;20172;-95
2022/11/28 07:59:00;;;;;;;29.08;11.77;;;;;;;8.30;59.63;100488.69;4391084;32;20093;-94
2022/11/28 08:01:28;;;;;;;31.55;13.15;;;;;;;8.27;59.64;100493.91;4398737;32;20121;-94
2022/11/28 08:03:53;;;;;;;31.20;12.55;;;;;;;8.27;59.63;100484.37;4398672;32;20132;-93
2022/11/28 08:06:23;;;;;;;33.97;12.20;;;;;;;8.36;59.64;100491.25;4411238;32;20109;-93
2022/11/28 08:08:48;;;;;;;28.83;12.32;;;;;;;8.24;59.64;100496.53;4376358;32;20113;-93
2022/11/28 08:11:15;;;;;;;31.23;12.18;;;;;;;8.31;59.64;100500.78;4386517;32;20473;-92
2022/11/28 08:13:40;;;;;;;29.90;11.82;;;;;;;8.26;59.64;100495.63;4387744;32;20082;-93
2022/11/28 08:16:07;;;;;;;26.77;12.32;;;;;;;8.16;59.63;100499.22;4409628;32;20140;-93
2022/11/28 08:18:35;;;;;;;30.02;11.40;;;;;;;8.22;59.63;100499.13;4398895;32;20135;-92
2022/11/28 08:21:05;;;;;;;27.52;11.55;;;;;;;8.12;59.62;100497.53;4390104;32;20085;-93
2022/11/28 08:23:32;;;;;;;29.45;11.57;;;;;;;8.11;59.63;100501.00;4411743;32;20121;-92
2022/11/28 08:25:59;;;;;;;29.48;12.68;;;;;;;8.14;59.63;100508.75;4386034;32;20133;-92
2022/11/28 08:28:25;;;;;;;28.08;11.43;;;;;;;7.99;59.63;100503.69;4386390;32;20136;-92
2022/11/28 08:30:50;;;;;;;26.50;11.12;;;;;;;7.92;59.62;100509.81;4385778;32;20110;-92
2022/11/28 08:33:16;;;;;;;28.25;11.40;;;;;;;7.75;59.61;100511.69;4383069;32;20455;-92
2022/11/28 08:35:41;;;;;;;29.05;11.15;;;;;;;7.90;59.61;100506.38;4383220;32;20129;-92
2022/11/28 08:38:06;;;;;;;31.60;12.48;;;;;;;7.85;59.62;100516.78;4383099;32;20695;-92
2022/11/28 08:40:32;;;;;;;31.40;11.50;;;;;;;7.84;59.60;100516.81;4385738;32;20469;-92
2022/11/28 08:42:57;;;;;;;28.95;12.07;;;;;;;7.81;59.61;100515.09;4383284;32;20152;-93
2022/11/28 08:45:23;;;;;;;26.67;11.75;;;;;;;7.94;59.62;100503.75;4390512;32;20124;-93
2022/11/28 08:47:48;;;;;;;26.12;10.63;;;;;;;7.87;59.62;100506.41;4385835;32;20169;-92
2022/11/28 08:50:14;;;;;;;28.10;11.32;;;;;;;7.91;59.61;100508.09;4385869;32;20113;-93
2022/11/28 08:52:39;;;;;;;28.05;11.82;;;;;;;7.94;59.62;100518.44;4411263;32;20089;-92
2022/11/28 08:55:05;;;;;;;27.87;10.82;;;;;;;7.84;59.62;100511.63;4410284;32;20152;-93
2022/11/28 08:57:30;;;;;;;25.25;10.90;;;;;;;7.90;59.61;100512.44;4411291;32;20226;-94
2022/11/28 08:59:56;;;;;;;27.10;11.57;;;;;;;7.95;59.62;100517.56;4398456;32;20093;-93
2022/11/28 09:02:21;;;;;;;27.50;10.32;;;;;;;8.06;59.62;100513.16;4408477;32;20161;-93
2022/11/28 09:04:46;;;;;;;23.50;10.38;;;;;;;8.16;59.63;100508.72;4383872;32;20152;-92
2022/11/28 09:07:12;;;;;;;31.37;12.13;;;;;;;8.04;59.62;100506.22;4411025;32;20135;-92
2022/11/28 09:09:37;;;;;;;26.25;10.70;;;;;;;8.19;59.63;100506.09;4385723;32;20120;-93
2022/11/28 09:12:03;;;;;;;27.30;10.20;;;;;;;8.24;59.63;100497.38;4407952;32;20085;-92
2022/11/28 09:14:28;;;;;;;24.25;10.63;;;;;;;8.24;59.64;100502.56;4385887;32;20114;-93
2022/11/28 09:16:54;;;;;;;25.60;10.82;;;;;;;8.26;59.64;100495.63;4385439;32;20109;-92
2022/11/28 09:19:19;;;;;;;23.15;10.25;;;;;;;8.42;59.64;100492.91;4411089;32;20127;-92
2022/11/28 09:21:44;;;;;;;24.25;9.43;;;;;;;8.50;59.65;100498.88;4388037;32;20147;-93
2022/11/28 09:24:12;;;;;;;26.95;12.37;;;;;;;8.47;59.65;100496.31;4388100;32;20098;-92
2022/11/28 09:26:38;;;;;;;26.75;11.60;;;;;;;8.52;59.66;100498.00;4411206;32;20439;-92
2022/11/28 09:29:03;;;;;;;24.73;10.27;;;;;;;8.51;59.66;100491.06;4410500;32;20123;-93
2022/11/28 09:31:29;;;;;;;27.77;11.18;;;;;;;8.68;59.66;100496.06;4408101;32;20115;-92
2022/11/28 09:33:54;;;;;;;27.58;10.80;;;;;;;8.69;59.66;100495.19;4376208;32;220192;-92
2022/11/28 09:36:23;;;;;;;27.00;10.27;;;;;;;8.60;59.66;100484.91;4397206;32;20209;-92
2022/11/28 09:38:49;;;;;;;27.10;10.40;;;;;;;8.49;59.65;100491.97;4411104;32;20116;-92
2022/11/28 09:41:31;;;;;;;26.02;10.85;;;;;;;8.55;59.65;100484.13;4398329;32;20105;-92
2022/11/28 09:44:02;;;;;;;28.12;11.43;;;;;;;8.58;59.65;100482.34;4393040;32;20227;-93
2022/11/28 09:46:30;;;;;;;27.55;10.15;;;;;;;8.43;59.64;100476.47;4398481;32;20118;-93
2022/11/28 09:48:57;;;;;;;24.55;10.82;;;;;;;8.46;59.65;100476.44;4385571;32;20109;-93
2022/11/28 09:51:56;;;;;;;21.45;9.80;;;;;;;8.60;59.66;100469.34;4385496;32;20101;-93
2022/11/28 09:54:28;;;;;;;28.73;10.67;;;;;;;8.56;59.65;100467.69;4411841;32;20066;-93
2022/11/28 09:56:54;;;;;;;24.87;10.23;;;;;;;8.51;59.64;100459.06;4400045;32;20173;-94
2022/11/28 09:59:27;;;;;;;25.73;10.15;;;;;;;8.76;59.67;100449.25;4399927;32;20114;-93
2022/11/28 10:02:14;;;;;;;24.52;10.02;;;;;;;8.67;59.66;100447.63;4410240;32;20054;-93
2022/11/28 10:05:04;;;;;;;24.83;9.15;;;;;;;8.58;59.65;100451.22;4410566;32;20136;-92
2022/11/28 10:07:42;;;;;;;25.98;10.70;;;;;;;8.50;59.65;100446.97;4397713;32;20141;-93
2022/11/28 10:10:25;;;;;;;23.73;10.07;;;;;;;8.53;59.66;100446.97;4385518;32;20096;-92
2022/11/28 10:13:14;;;;;;;24.83;9.73;;;;;;;8.49;59.65;100455.62;4386959;32;20158;-93
2022/11/28 10:15:42;;;;;;;21.37;9.80;;;;;;;8.47;59.65;100449.59;4410011;32;20808;-93
2022/11/28 10:18:08;;;;;;;26.33;9.70;;;;;;;8.44;59.64;100447.06;4410788;32;20169;-93
2022/11/28 10:20:37;;;;;;;25.45;10.45;;;;;;;8.39;59.64;100452.31;4412210;32;20125;-93
2022/11/28 10:23:30;;;;;;;24.45;10.25;;;;;;;8.49;59.65;100445.25;4387240;32;20093;-93
2022/11/28 10:26:00;;;;;;;19.12;9.32;;;;;;;8.39;59.64;100444.53;4427184;32;20077;-93
2022/11/28 10:28:29;;;;;;;22.85;11.27;;;;;;;8.36;59.64;100446.31;4388094;32;20124;-94
2022/11/28 10:31:19;;;;;;;21.85;10.38;;;;;;;8.32;59.64;100446.31;4400094;32;20113;-94
2022/11/28 10:33:44;;;;;;;;;;;;;;;8.34;59.64;100445.47;4412676;32;20054;-94
2022/11/28 10:36:21;;;;;;;22.80;10.00;;;;;;;8.02;59.63;100433.66;4415674;32;20352;-92
2022/11/28 10:38:46;;;;;;;24.23;9.82;;;;;;;8.11;59.63;100433.59;4386992;32;20176;-94
2022/11/28 10:41:21;;;;;;;22.08;9.63;;;;;;;8.21;59.63;100431.72;4386853;32;20117;-95
2022/11/28 10:43:59;;;;;;;28.52;10.93;;;;;;;8.10;59.63;100428.41;4399539;32;20062;-92
2022/11/28 10:46:43;;;;;;;25.92;10.70;;;;;;;8.15;59.63;100424.88;4397226;32;20090;-91
2022/11/28 10:49:21;;;;;;;25.20;11.30;;;;;;;8.15;59.63;100421.44;4412576;32;20113;-93
2022/11/28 10:51:48;;;;;;;28.02;11.68;;;;;;;8.08;59.63;100422.38;4377153;32;20458;-93
2022/11/28 10:54:32;;;;;;;29.70;13.20;;;;;;;8.28;59.63;100412.63;4399340;32;20124;-93
2022/11/28 10:57:20;;;;;;;24.02;10.88;;;;;;;8.40;59.65;100409.91;4389370;32;20147;-93
2022/11/28 10:59:51;;;;;;;26.23;12.57;;;;;;;8.39;59.65;100410.78;4411845;32;20118;-93
2022/11/28 11:02:25;;;;;;;25.85;12.27;;;;;;;8.51;59.66;100399.37;4411721;32;20125;-93
2022/11/28 11:04:51;;;;;;;35.97;13.13;;;;;;;8.53;59.66;100400.25;4384107;32;20085;-93
2022/11/28 11:07:24;;;;;;;26.37;11.68;;;;;;;8.41;59.65;100395.22;4383919;32;20169;-93
2022/11/28 11:09:50;;;;;;;27.75;12.75;;;;;;;8.40;59.65;100398.69;4386719;32;20124;-92
2022/11/28 11:12:30;;;;;;;28.40;12.35;;;;;;;8.35;59.64;100396.16;4386635;32;20109;-93
2022/11/28 11:14:55;;;;;;;30.58;12.20;;;;;;;8.40;59.65;100396.94;4388142;32;20112;-93
2022/11/28 11:17:25;;;;;;;32.00;13.32;;;;;;;8.27;59.64;100397.94;4409377;32;20149;-92
2022/11/28 11:19:50;;;;;;;30.23;14.15;;;;;;;8.32;59.64;100407.41;4396917;32;20156;-92
2022/11/28 11:22:21;;;;;;;36.10;13.45;;;;;;;8.27;59.64;100398.78;4384138;32;20439;-93
2022/11/28 11:25:04;;;;;;;30.88;13.38;;;;;;;8.40;59.64;100393.50;4387097;32;20117;-94
2022/11/28 11:27:30;;;;;;;29.05;13.00;;;;;;;8.40;59.65;100403.88;4412828;32;20085;-93
2022/11/28 11:29:55;;;;;;;29.87;12.68;;;;;;;8.46;59.65;100402.06;4387384;32;20169;-93
2022/11/28 11:32:28;;;;;;;31.73;13.07;;;;;;;8.27;59.64;100395.34;4400284;32;20188;-94
2022/11/28 11:34:54;;;;;;;27.27;12.90;;;;;;;8.04;59.62;100398.19;4389592;32;20110;-93
2022/11/28 11:37:27;;;;;;;30.65;13.48;;;;;;;8.30;59.64;100391.00;4389592;32;20112;-93
2022/11/28 11:39:53;;;;;;;31.02;12.52;;;;;;;8.46;59.65;100394.25;4388448;32;20143;-92
2022/11/28 11:42:23;;;;;;;32.65;13.30;;;;;;;8.60;59.66;100386.31;4393092;32;20126;-93
2022/11/28 11:44:49;;;;;;;32.05;13.75;;;;;;;8.60;59.66;100384.56;4411599;32;20113;-93
2022/11/28 11:47:14;;;;;;;36.42;14.52;;;;;;;8.60;59.66;100391.50;4409067;32;20496;-93
2022/11/28 11:49:42;;;;;;;27.77;12.65;;;;;;;8.54;59.65;100384.66;4397904;32;20288;-93
2022/11/28 11:52:11;;;;;;;33.03;14.80;;;;;;;8.52;59.64;100388.16;4411974;32;20106;-93
2022/11/28 11:54:37;;;;;;;35.77;15.07;;;;;;;8.50;59.65;100384.69;4411653;32;20167;-93
2022/11/28 11:57:02;;;;;;;26.70;13.62;;;;;;;8.56;59.65;100384.62;4408946;32;20114;-93
2022/11/28 11:59:30;;;;;;;35.55;14.50;;;;;;;8.54;59.65;100389.84;4383881;32;20106;-92
2022/11/28 12:02:01;;;;;;;31.65;13.80;;;;;;;8.54;59.65;100373.44;4383799;32;20105;-92
2022/11/28 12:04:30;;;;;;;34.22;15.02;;;;;;;8.50;59.65;100367.41;4383880;32;20102;-93
2022/11/28 12:06:57;;;;;;;35.15;13.62;;;;;;;8.45;59.65;100373.53;4386583;32;20106;-92
2022/11/28 12:09:45;;;;;;;31.92;15.13;;;;;;;8.50;59.65;100374.31;4383735;32;20786;-93
2022/11/28 12:12:22;;;;;;;32.53;14.07;;;;;;;8.67;59.66;100372.34;4391445;32;20136;-93
2022/11/28 12:14:48;;;;;;;31.75;14.15;;;;;;;8.50;59.65;100366.53;4388136;32;20062;-93